sensor_id;sensor_type;location;lat;lon;timestamp;P1;durP1;ratioP1;P2;durP2;ratioP2
813;SDS011;389;48.710;9.392;2022-12-07T00:01:11;9.30;;;5.47;;
813;SDS011;389;48.710;9.392;2022-12-07T00:03:40;9.60;;;5.40;;
813;SDS011;389;48.710;9.392;2022-12-07T00:06:08;9.67;;;5.80;;
813;SDS011;389;48.710;9.392;2022-12-07T00:08:35;9.63;;;5.60;;
813;SDS011;389;48.710;9.392;2022-12-07T00:11:07;9.70;;;5.90;;
813;SDS011;389;48.710;9.392;2022-12-07T00:13:38;9.70;;;5.80;;
813;SDS011;389;48.710;9.392;2022-12-07T00:16:12;8.90;;;5.97;;
813;SDS011;389;48.710;9.392;2022-12-07T00:18:43;7.10;;;5.20;;
813;SDS011;389;48.710;9.392;2022-12-07T00:23:38;14.00;;;5.80;;
813;SDS011;389;48.710;9.392;2022-12-07T00:26:16;10.20;;;5.33;;
813;SDS011;389;48.710;9.392;2022-12-07T00:28:50;7.67;;;4.43;;
813;SDS011;389;48.710;9.392;2022-12-07T00:31:24;5.97;;;4.63;;
813;SDS011;389;48.710;9.392;2022-12-07T00:33:51;6.90;;;4.50;;
813;SDS011;389;48.710;9.392;2022-12-07T00:39:12;8.90;;;5.17;;
813;SDS011;389;48.710;9.392;2022-12-07T00:41:38;7.10;;;4.70;;
813;SDS011;389;48.710;9.392;2022-12-07T00:44:04;7.43;;;4.83;;
813;SDS011;389;48.710;9.392;2022-12-07T00:46:30;8.10;;;5.10;;
813;SDS011;389;48.710;9.392;2022-12-07T00:48:55;8.87;;;5.00;;
813;SDS011;389;48.710;9.392;2022-12-07T00:51:22;8.60;;;4.87;;
813;SDS011;389;48.710;9.392;2022-12-07T00:53:49;9.70;;;5.20;;
813;SDS011;389;48.710;9.392;2022-12-07T00:56:21;10.67;;;5.53;;
813;SDS011;389;48.710;9.392;2022-12-07T00:58:59;11.33;;;5.73;;
813;SDS011;389;48.710;9.392;2022-12-07T01:01:27;11.10;;;5.47;;
813;SDS011;389;48.710;9.392;2022-12-07T01:03:54;10.20;;;5.63;;
813;SDS011;389;48.710;9.392;2022-12-07T01:06:20;13.27;;;6.00;;
813;SDS011;389;48.710;9.392;2022-12-07T01:08:47;12.77;;;6.07;;
813;SDS011;389;48.710;9.392;2022-12-07T01:11:14;10.70;;;5.33;;
813;SDS011;389;48.710;9.392;2022-12-07T01:13:42;11.30;;;5.40;;
813;SDS011;389;48.710;9.392;2022-12-07T01:16:10;8.23;;;5.73;;
813;SDS011;389;48.710;9.392;2022-12-07T01:18:37;9.97;;;5.53;;
813;SDS011;389;48.710;9.392;2022-12-07T01:21:11;9.00;;;5.60;;
813;SDS011;389;48.710;9.392;2022-12-07T01:23:38;9.93;;;5.33;;
813;SDS011;389;48.710;9.392;2022-12-07T01:26:05;11.73;;;6.23;;
813;SDS011;389;48.710;9.392;2022-12-07T01:28:32;9.30;;;5.30;;
813;SDS011;389;48.710;9.392;2022-12-07T01:31:03;9.20;;;4.83;;
813;SDS011;389;48.710;9.392;2022-12-07T01:33:32;7.20;;;4.63;;
813;SDS011;389;48.710;9.392;2022-12-07T01:38:31;9.10;;;5.57;;
813;SDS011;389;48.710;9.392;2022-12-07T01:40:58;13.40;;;5.73;;
813;SDS011;389;48.710;9.392;2022-12-07T01:43:25;7.97;;;5.00;;
813;SDS011;389;48.710;9.392;2022-12-07T01:45:52;11.20;;;5.67;;
813;SDS011;389;48.710;9.392;2022-12-07T01:48:20;9.77;;;6.00;;
813;SDS011;389;48.710;9.392;2022-12-07T01:51:08;8.53;;;5.10;;
813;SDS011;389;48.710;9.392;2022-12-07T01:53:37;11.97;;;5.63;;
813;SDS011;389;48.710;9.392;2022-12-07T01:56:11;12.00;;;6.53;;
813;SDS011;389;48.710;9.392;2022-12-07T01:58:43;12.30;;;6.17;;
813;SDS011;389;48.710;9.392;2022-12-07T02:01:09;14.67;;;6.17;;
813;SDS011;389;48.710;9.392;2022-12-07T02:03:39;12.67;;;6.30;;
813;SDS011;389;48.710;9.392;2022-12-07T02:06:07;14.73;;;7.30;;
813;SDS011;389;48.710;9.392;2022-12-07T02:08:34;9.40;;;5.10;;
813;SDS011;389;48.710;9.392;2022-12-07T02:11:02;9.60;;;5.70;;
813;SDS011;389;48.710;9.392;2022-12-07T02:13:30;11.27;;;5.83;;
813;SDS011;389;48.710;9.392;2022-12-07T02:19:14;10.57;;;6.53;;
813;SDS011;389;48.710;9.392;2022-12-07T02:27:40;10.70;;;5.90;;
813;SDS011;389;48.710;9.392;2022-12-07T02:40:47;13.93;;;6.50;;
813;SDS011;389;48.710;9.392;2022-12-07T02:43:27;14.40;;;5.80;;
813;SDS011;389;48.710;9.392;2022-12-07T02:46:03;9.10;;;4.97;;
813;SDS011;389;48.710;9.392;2022-12-07T02:48:46;10.67;;;5.83;;
813;SDS011;389;48.710;9.392;2022-12-07T02:51:12;12.67;;;5.80;;
813;SDS011;389;48.710;9.392;2022-12-07T02:53:39;13.10;;;6.00;;
813;SDS011;389;48.710;9.392;2022-12-07T03:07:24;11.13;;;6.07;;
813;SDS011;389;48.710;9.392;2022-12-07T03:10:19;11.53;;;6.10;;
813;SDS011;389;48.710;9.392;2022-12-07T03:15:42;11.70;;;6.50;;
813;SDS011;389;48.710;9.392;2022-12-07T03:18:25;9.80;;;6.00;;
813;SDS011;389;48.710;9.392;2022-12-07T03:20:58;11.40;;;5.97;;
813;SDS011;389;48.710;9.392;2022-12-07T03:23:30;11.30;;;6.53;;
813;SDS011;389;48.710;9.392;2022-12-07T03:26:00;14.47;;;6.40;;
813;SDS011;389;48.710;9.392;2022-12-07T03:28:35;13.90;;;6.40;;
813;SDS011;389;48.710;9.392;2022-12-07T03:31:06;13.90;;;6.53;;
813;SDS011;389;48.710;9.392;2022-12-07T03:33:44;12.90;;;6.73;;
813;SDS011;389;48.710;9.392;2022-12-07T03:36:24;9.73;;;6.60;;
813;SDS011;389;48.710;9.392;2022-12-07T03:38:55;15.97;;;6.03;;
813;SDS011;389;48.710;9.392;2022-12-07T03:41:29;11.73;;;6.57;;
813;SDS011;389;48.710;9.392;2022-12-07T03:43:57;10.80;;;5.60;;
813;SDS011;389;48.710;9.392;2022-12-07T03:52:30;11.63;;;6.40;;
813;SDS011;389;48.710;9.392;2022-12-07T03:54:48;12.63;;;6.47;;
813;SDS011;389;48.710;9.392;2022-12-07T03:57:21;12.77;;;6.23;;
813;SDS011;389;48.710;9.392;2022-12-07T03:59:49;12.87;;;6.70;;
813;SDS011;389;48.710;9.392;2022-12-07T04:02:16;19.83;;;6.13;;
813;SDS011;389;48.710;9.392;2022-12-07T04:04:41;12.10;;;6.47;;
813;SDS011;389;48.710;9.392;2022-12-07T04:07:08;9.10;;;5.83;;
813;SDS011;389;48.710;9.392;2022-12-07T04:09:34;13.00;;;6.47;;
813;SDS011;389;48.710;9.392;2022-12-07T04:11:59;13.23;;;6.80;;
813;SDS011;389;48.710;9.392;2022-12-07T04:14:25;11.87;;;5.80;;
813;SDS011;389;48.710;9.392;2022-12-07T04:16:51;11.77;;;6.87;;
813;SDS011;389;48.710;9.392;2022-12-07T04:19:25;11.93;;;6.60;;
813;SDS011;389;48.710;9.392;2022-12-07T04:21:52;9.63;;;5.27;;
813;SDS011;389;48.710;9.392;2022-12-07T04:24:18;10.20;;;6.17;;
813;SDS011;389;48.710;9.392;2022-12-07T04:26:44;10.77;;;6.87;;
813;SDS011;389;48.710;9.392;2022-12-07T04:29:11;14.87;;;7.30;;
813;SDS011;389;48.710;9.392;2022-12-07T04:31:37;11.33;;;6.17;;
813;SDS011;389;48.710;9.392;2022-12-07T04:34:04;12.57;;;7.10;;
813;SDS011;389;48.710;9.392;2022-12-07T04:36:34;12.30;;;5.90;;
813;SDS011;389;48.710;9.392;2022-12-07T04:39:00;12.47;;;6.87;;
813;SDS011;389;48.710;9.392;2022-12-07T04:41:26;13.97;;;7.17;;
813;SDS011;389;48.710;9.392;2022-12-07T04:43:55;15.33;;;5.90;;
813;SDS011;389;48.710;9.392;2022-12-07T04:46:23;15.40;;;6.27;;
813;SDS011;389;48.710;9.392;2022-12-07T04:48:50;11.70;;;6.10;;
813;SDS011;389;48.710;9.392;2022-12-07T04:51:18;14.63;;;6.60;;
813;SDS011;389;48.710;9.392;2022-12-07T04:53:49;16.50;;;7.03;;
813;SDS011;389;48.710;9.392;2022-12-07T04:56:15;14.27;;;6.77;;
813;SDS011;389;48.710;9.392;2022-12-07T04:58:42;11.67;;;6.07;;
813;SDS011;389;48.710;9.392;2022-12-07T05:01:09;11.20;;;6.60;;
813;SDS011;389;48.710;9.392;2022-12-07T05:03:36;10.40;;;6.80;;
813;SDS011;389;48.710;9.392;2022-12-07T05:06:02;9.23;;;5.43;;
813;SDS011;389;48.710;9.392;2022-12-07T05:08:28;11.03;;;6.20;;
813;SDS011;389;48.710;9.392;2022-12-07T05:10:54;11.87;;;5.87;;
813;SDS011;389;48.710;9.392;2022-12-07T05:13:20;12.03;;;6.40;;
813;SDS011;389;48.710;9.392;2022-12-07T05:15:47;16.50;;;6.67;;
813;SDS011;389;48.710;9.392;2022-12-07T05:21:38;20.53;;;9.57;;
813;SDS011;389;48.710;9.392;2022-12-07T05:24:04;14.40;;;7.57;;
813;SDS011;389;48.710;9.392;2022-12-07T05:26:31;12.80;;;5.80;;
813;SDS011;389;48.710;9.392;2022-12-07T05:28:57;13.23;;;7.37;;
813;SDS011;389;48.710;9.392;2022-12-07T05:31:23;14.90;;;7.07;;
813;SDS011;389;48.710;9.392;2022-12-07T05:33:50;16.07;;;7.27;;
813;SDS011;389;48.710;9.392;2022-12-07T05:36:16;15.17;;;7.80;;
813;SDS011;389;48.710;9.392;2022-12-07T05:38:41;13.57;;;6.70;;
813;SDS011;389;48.710;9.392;2022-12-07T05:41:07;15.53;;;8.00;;
813;SDS011;389;48.710;9.392;2022-12-07T05:43:53;13.30;;;7.90;;
813;SDS011;389;48.710;9.392;2022-12-07T05:46:20;14.40;;;6.67;;
813;SDS011;389;48.710;9.392;2022-12-07T05:48:45;11.67;;;6.50;;
813;SDS011;389;48.710;9.392;2022-12-07T05:51:11;15.90;;;7.63;;
813;SDS011;389;48.710;9.392;2022-12-07T05:53:36;15.07;;;7.73;;
813;SDS011;389;48.710;9.392;2022-12-07T05:56:02;14.57;;;7.17;;
813;SDS011;389;48.710;9.392;2022-12-07T05:58:27;15.90;;;7.80;;
813;SDS011;389;48.710;9.392;2022-12-07T06:01:11;17.90;;;7.50;;
813;SDS011;389;48.710;9.392;2022-12-07T06:03:37;16.27;;;7.63;;
813;SDS011;389;48.710;9.392;2022-12-07T06:06:03;11.80;;;6.13;;
813;SDS011;389;48.710;9.392;2022-12-07T06:08:28;15.53;;;8.03;;
813;SDS011;389;48.710;9.392;2022-12-07T06:10:54;8.80;;;5.80;;
813;SDS011;389;48.710;9.392;2022-12-07T06:13:39;11.83;;;6.77;;
813;SDS011;389;48.710;9.392;2022-12-07T06:16:05;13.07;;;6.60;;
813;SDS011;389;48.710;9.392;2022-12-07T06:18:34;14.80;;;7.03;;
813;SDS011;389;48.710;9.392;2022-12-07T06:20:59;12.50;;;7.13;;
813;SDS011;389;48.710;9.392;2022-12-07T06:23:25;14.20;;;6.80;;
813;SDS011;389;48.710;9.392;2022-12-07T06:25:51;14.83;;;7.40;;
813;SDS011;389;48.710;9.392;2022-12-07T06:28:16;17.57;;;7.80;;
813;SDS011;389;48.710;9.392;2022-12-07T06:30:42;14.97;;;7.23;;
813;SDS011;389;48.710;9.392;2022-12-07T06:33:07;13.03;;;6.70;;
813;SDS011;389;48.710;9.392;2022-12-07T06:35:33;13.23;;;7.53;;
813;SDS011;389;48.710;9.392;2022-12-07T06:37:59;14.27;;;7.57;;
813;SDS011;389;48.710;9.392;2022-12-07T06:40:24;13.60;;;7.87;;
813;SDS011;389;48.710;9.392;2022-12-07T06:42:50;10.60;;;6.50;;
813;SDS011;389;48.710;9.392;2022-12-07T06:45:15;13.60;;;7.40;;
813;SDS011;389;48.710;9.392;2022-12-07T06:47:41;17.77;;;7.33;;
813;SDS011;389;48.710;9.392;2022-12-07T06:50:07;14.80;;;6.80;;
813;SDS011;389;48.710;9.392;2022-12-07T06:52:33;14.67;;;7.67;;
813;SDS011;389;48.710;9.392;2022-12-07T06:54:59;14.83;;;6.90;;
813;SDS011;389;48.710;9.392;2022-12-07T06:57:24;15.87;;;7.77;;
813;SDS011;389;48.710;9.392;2022-12-07T06:59:50;13.17;;;6.90;;
813;SDS011;389;48.710;9.392;2022-12-07T07:02:16;12.57;;;7.40;;
813;SDS011;389;48.710;9.392;2022-12-07T07:04:41;11.30;;;7.23;;
813;SDS011;389;48.710;9.392;2022-12-07T07:07:07;13.30;;;6.60;;
813;SDS011;389;48.710;9.392;2022-12-07T07:09:33;13.10;;;6.83;;
813;SDS011;389;48.710;9.392;2022-12-07T07:11:58;13.07;;;6.97;;
813;SDS011;389;48.710;9.392;2022-12-07T07:14:24;11.60;;;6.60;;
813;SDS011;389;48.710;9.392;2022-12-07T07:16:50;14.20;;;6.50;;
813;SDS011;389;48.710;9.392;2022-12-07T07:19:15;15.00;;;8.10;;
813;SDS011;389;48.710;9.392;2022-12-07T07:21:41;11.87;;;6.90;;
813;SDS011;389;48.710;9.392;2022-12-07T07:24:07;15.10;;;7.10;;
813;SDS011;389;48.710;9.392;2022-12-07T07:26:32;19.20;;;7.87;;
813;SDS011;389;48.710;9.392;2022-12-07T07:28:58;12.40;;;6.50;;
813;SDS011;389;48.710;9.392;2022-12-07T07:31:23;12.20;;;6.40;;
813;SDS011;389;48.710;9.392;2022-12-07T07:33:49;11.23;;;7.10;;
813;SDS011;389;48.710;9.392;2022-12-07T07:36:14;12.67;;;7.77;;
813;SDS011;389;48.710;9.392;2022-12-07T07:38:40;13.97;;;8.30;;
813;SDS011;389;48.710;9.392;2022-12-07T07:41:06;16.60;;;8.70;;
813;SDS011;389;48.710;9.392;2022-12-07T07:43:32;12.87;;;8.10;;
813;SDS011;389;48.710;9.392;2022-12-07T07:45:58;14.30;;;7.20;;
813;SDS011;389;48.710;9.392;2022-12-07T07:48:23;12.27;;;7.40;;
813;SDS011;389;48.710;9.392;2022-12-07T07:50:50;12.47;;;6.83;;
813;SDS011;389;48.710;9.392;2022-12-07T07:53:16;16.13;;;7.80;;
813;SDS011;389;48.710;9.392;2022-12-07T07:55:41;11.30;;;6.70;;
813;SDS011;389;48.710;9.392;2022-12-07T07:58:16;13.27;;;7.40;;
813;SDS011;389;48.710;9.392;2022-12-07T08:00:41;14.87;;;8.10;;
813;SDS011;389;48.710;9.392;2022-12-07T08:03:07;14.63;;;6.80;;
813;SDS011;389;48.710;9.392;2022-12-07T08:05:32;14.97;;;7.37;;
813;SDS011;389;48.710;9.392;2022-12-07T08:07:58;15.90;;;7.23;;
813;SDS011;389;48.710;9.392;2022-12-07T08:10:24;14.27;;;7.50;;
813;SDS011;389;48.710;9.392;2022-12-07T08:12:49;16.10;;;9.20;;
813;SDS011;389;48.710;9.392;2022-12-07T08:15:33;15.87;;;8.30;;
813;SDS011;389;48.710;9.392;2022-12-07T08:18:02;17.40;;;10.50;;
813;SDS011;389;48.710;9.392;2022-12-07T08:20:29;15.37;;;8.40;;
813;SDS011;389;48.710;9.392;2022-12-07T08:22:56;16.83;;;7.40;;
813;SDS011;389;48.710;9.392;2022-12-07T08:25:22;13.87;;;7.70;;
813;SDS011;389;48.710;9.392;2022-12-07T08:27:48;18.17;;;8.70;;
813;SDS011;389;48.710;9.392;2022-12-07T08:30:14;14.00;;;8.27;;
813;SDS011;389;48.710;9.392;2022-12-07T08:32:40;16.40;;;8.60;;
813;SDS011;389;48.710;9.392;2022-12-07T08:35:06;13.93;;;7.37;;
813;SDS011;389;48.710;9.392;2022-12-07T08:37:32;11.63;;;6.60;;
813;SDS011;389;48.710;9.392;2022-12-07T08:39:58;12.77;;;6.83;;
813;SDS011;389;48.710;9.392;2022-12-07T08:42:24;11.53;;;6.83;;
813;SDS011;389;48.710;9.392;2022-12-07T08:44:54;11.90;;;6.43;;
813;SDS011;389;48.710;9.392;2022-12-07T08:47:23;13.57;;;6.70;;
813;SDS011;389;48.710;9.392;2022-12-07T08:49:50;13.20;;;6.70;;
813;SDS011;389;48.710;9.392;2022-12-07T08:52:17;12.40;;;6.10;;
813;SDS011;389;48.710;9.392;2022-12-07T08:54:43;13.00;;;6.67;;
813;SDS011;389;48.710;9.392;2022-12-07T08:57:10;11.80;;;7.20;;
813;SDS011;389;48.710;9.392;2022-12-07T08:59:36;15.63;;;7.40;;
813;SDS011;389;48.710;9.392;2022-12-07T09:02:04;14.60;;;7.70;;
813;SDS011;389;48.710;9.392;2022-12-07T09:04:30;11.37;;;6.47;;
813;SDS011;389;48.710;9.392;2022-12-07T09:06:55;12.80;;;6.47;;
813;SDS011;389;48.710;9.392;2022-12-07T09:09:21;11.43;;;6.20;;
813;SDS011;389;48.710;9.392;2022-12-07T09:11:47;9.70;;;6.00;;
813;SDS011;389;48.710;9.392;2022-12-07T09:14:13;9.10;;;5.70;;
813;SDS011;389;48.710;9.392;2022-12-07T09:16:39;13.30;;;6.50;;
813;SDS011;389;48.710;9.392;2022-12-07T09:19:05;10.13;;;6.00;;
813;SDS011;389;48.710;9.392;2022-12-07T09:21:30;14.63;;;6.80;;
813;SDS011;389;48.710;9.392;2022-12-07T09:23:56;10.77;;;7.30;;
813;SDS011;389;48.710;9.392;2022-12-07T09:26:22;12.27;;;6.90;;
813;SDS011;389;48.710;9.392;2022-12-07T09:28:47;14.03;;;7.17;;
813;SDS011;389;48.710;9.392;2022-12-07T09:31:13;12.90;;;6.30;;
813;SDS011;389;48.710;9.392;2022-12-07T09:33:38;12.13;;;6.40;;
813;SDS011;389;48.710;9.392;2022-12-07T09:36:04;11.33;;;5.93;;
813;SDS011;389;48.710;9.392;2022-12-07T09:38:30;11.77;;;5.93;;
813;SDS011;389;48.710;9.392;2022-12-07T09:40:57;9.80;;;5.87;;
813;SDS011;389;48.710;9.392;2022-12-07T09:43:29;11.43;;;5.90;;
813;SDS011;389;48.710;9.392;2022-12-07T09:45:55;9.80;;;5.73;;
813;SDS011;389;48.710;9.392;2022-12-07T09:48:34;8.70;;;5.20;;
813;SDS011;389;48.710;9.392;2022-12-07T09:51:02;7.87;;;5.13;;
813;SDS011;389;48.710;9.392;2022-12-07T09:53:38;10.43;;;5.73;;
813;SDS011;389;48.710;9.392;2022-12-07T09:56:04;11.27;;;6.43;;
813;SDS011;389;48.710;9.392;2022-12-07T09:58:30;12.07;;;6.80;;
813;SDS011;389;48.710;9.392;2022-12-07T10:03:32;12.03;;;5.30;;
813;SDS011;389;48.710;9.392;2022-12-07T10:05:59;8.60;;;4.93;;
813;SDS011;389;48.710;9.392;2022-12-07T10:08:25;9.13;;;5.90;;
813;SDS011;389;48.710;9.392;2022-12-07T10:10:52;13.47;;;7.77;;
813;SDS011;389;48.710;9.392;2022-12-07T10:13:42;12.07;;;7.27;;
813;SDS011;389;48.710;9.392;2022-12-07T10:16:54;11.77;;;6.13;;
813;SDS011;389;48.710;9.392;2022-12-07T10:19:25;8.80;;;6.47;;
813;SDS011;389;48.710;9.392;2022-12-07T10:24:38;8.47;;;5.03;;
813;SDS011;389;48.710;9.392;2022-12-07T10:27:20;7.67;;;4.30;;
813;SDS011;389;48.710;9.392;2022-12-07T10:29:51;8.10;;;5.70;;
813;SDS011;389;48.710;9.392;2022-12-07T10:34:43;9.20;;;5.17;;
813;SDS011;389;48.710;9.392;2022-12-07T10:39:50;9.13;;;5.37;;
813;SDS011;389;48.710;9.392;2022-12-07T10:42:28;6.70;;;4.90;;
813;SDS011;389;48.710;9.392;2022-12-07T10:45:14;8.70;;;4.80;;
813;SDS011;389;48.710;9.392;2022-12-07T11:00:37;8.23;;;5.77;;
813;SDS011;389;48.710;9.392;2022-12-07T11:05:45;10.73;;;5.50;;
813;SDS011;389;48.710;9.392;2022-12-07T11:14:03;6.63;;;4.63;;
813;SDS011;389;48.710;9.392;2022-12-07T11:22:13;7.53;;;4.67;;
813;SDS011;389;48.710;9.392;2022-12-07T11:25:00;7.63;;;4.30;;
813;SDS011;389;48.710;9.392;2022-12-07T11:27:48;10.57;;;5.40;;
813;SDS011;389;48.710;9.392;2022-12-07T11:36:35;12.60;;;6.90;;
813;SDS011;389;48.710;9.392;2022-12-07T11:41:48;10.63;;;5.70;;
813;SDS011;389;48.710;9.392;2022-12-07T11:47:00;7.47;;;4.37;;
813;SDS011;389;48.710;9.392;2022-12-07T11:49:47;9.83;;;5.10;;
813;SDS011;389;48.710;9.392;2022-12-07T11:52:36;6.73;;;4.00;;
813;SDS011;389;48.710;9.392;2022-12-07T12:00:40;6.90;;;3.90;;
813;SDS011;389;48.710;9.392;2022-12-07T12:03:15;5.87;;;3.67;;
813;SDS011;389;48.710;9.392;2022-12-07T12:05:55;7.00;;;4.03;;
813;SDS011;389;48.710;9.392;2022-12-07T12:08:22;5.47;;;4.00;;
813;SDS011;389;48.710;9.392;2022-12-07T12:21:35;5.20;;;3.73;;
813;SDS011;389;48.710;9.392;2022-12-07T12:24:04;6.07;;;4.10;;
813;SDS011;389;48.710;9.392;2022-12-07T12:26:41;7.00;;;4.20;;
813;SDS011;389;48.710;9.392;2022-12-07T12:32:06;5.70;;;3.40;;
813;SDS011;389;48.710;9.392;2022-12-07T12:37:38;7.60;;;4.97;;
813;SDS011;389;48.710;9.392;2022-12-07T12:40:59;7.10;;;4.60;;
813;SDS011;389;48.710;9.392;2022-12-07T12:42:56;8.87;;;3.80;;
813;SDS011;389;48.710;9.392;2022-12-07T12:45:29;5.93;;;3.87;;
813;SDS011;389;48.710;9.392;2022-12-07T12:48:03;6.10;;;3.77;;
813;SDS011;389;48.710;9.392;2022-12-07T12:50:34;7.90;;;3.77;;
813;SDS011;389;48.710;9.392;2022-12-07T12:53:15;6.23;;;3.80;;
813;SDS011;389;48.710;9.392;2022-12-07T12:56:11;7.13;;;4.30;;
813;SDS011;389;48.710;9.392;2022-12-07T12:58:38;6.43;;;3.60;;
813;SDS011;389;48.710;9.392;2022-12-07T13:04:14;8.67;;;5.20;;
813;SDS011;389;48.710;9.392;2022-12-07T13:07:02;5.70;;;4.10;;
813;SDS011;389;48.710;9.392;2022-12-07T13:09:30;9.27;;;5.77;;
813;SDS011;389;48.710;9.392;2022-12-07T13:12:05;6.83;;;4.50;;
813;SDS011;389;48.710;9.392;2022-12-07T13:14:43;8.90;;;3.60;;
813;SDS011;389;48.710;9.392;2022-12-07T13:19:59;4.47;;;3.70;;
813;SDS011;389;48.710;9.392;2022-12-07T13:22:37;5.37;;;3.80;;
813;SDS011;389;48.710;9.392;2022-12-07T13:27:48;8.07;;;4.90;;
813;SDS011;389;48.710;9.392;2022-12-07T13:30:22;6.80;;;4.30;;
813;SDS011;389;48.710;9.392;2022-12-07T13:32:54;9.03;;;4.43;;
813;SDS011;389;48.710;9.392;2022-12-07T13:37:54;11.10;;;7.13;;
813;SDS011;389;48.710;9.392;2022-12-07T13:40:21;22.50;;;9.60;;
813;SDS011;389;48.710;9.392;2022-12-07T13:42:47;11.03;;;6.60;;
813;SDS011;389;48.710;9.392;2022-12-07T13:45:22;8.00;;;4.53;;
813;SDS011;389;48.710;9.392;2022-12-07T13:48:12;8.30;;;4.70;;
813;SDS011;389;48.710;9.392;2022-12-07T13:50:51;10.37;;;5.50;;
813;SDS011;389;48.710;9.392;2022-12-07T13:53:18;20.40;;;12.83;;
813;SDS011;389;48.710;9.392;2022-12-07T13:55:45;8.43;;;4.60;;
813;SDS011;389;48.710;9.392;2022-12-07T13:58:11;8.23;;;5.20;;
813;SDS011;389;48.710;9.392;2022-12-07T14:00:37;9.90;;;6.67;;
813;SDS011;389;48.710;9.392;2022-12-07T14:05:40;10.23;;;4.80;;
813;SDS011;389;48.710;9.392;2022-12-07T14:10:37;8.33;;;5.47;;
813;SDS011;389;48.710;9.392;2022-12-07T14:16:01;10.37;;;6.17;;
813;SDS011;389;48.710;9.392;2022-12-07T14:23:34;6.97;;;4.57;;
813;SDS011;389;48.710;9.392;2022-12-07T14:26:06;15.77;;;5.57;;
813;SDS011;389;48.710;9.392;2022-12-07T14:28:36;6.00;;;4.67;;
813;SDS011;389;48.710;9.392;2022-12-07T14:31:03;7.07;;;4.80;;
813;SDS011;389;48.710;9.392;2022-12-07T14:33:33;19.13;;;9.43;;
813;SDS011;389;48.710;9.392;2022-12-07T14:35:58;17.40;;;8.57;;
813;SDS011;389;48.710;9.392;2022-12-07T14:38:24;22.10;;;9.23;;
813;SDS011;389;48.710;9.392;2022-12-07T14:40:51;12.57;;;6.10;;
813;SDS011;389;48.710;9.392;2022-12-07T14:43:18;11.00;;;5.37;;
813;SDS011;389;48.710;9.392;2022-12-07T14:45:45;9.63;;;5.27;;
813;SDS011;389;48.710;9.392;2022-12-07T14:48:13;7.27;;;4.60;;
813;SDS011;389;48.710;9.392;2022-12-07T14:50:58;9.73;;;5.00;;
813;SDS011;389;48.710;9.392;2022-12-07T14:53:26;12.40;;;6.20;;
813;SDS011;389;48.710;9.392;2022-12-07T14:55:55;7.73;;;4.97;;
813;SDS011;389;48.710;9.392;2022-12-07T14:58:21;7.73;;;4.37;;
813;SDS011;389;48.710;9.392;2022-12-07T15:00:46;11.90;;;8.30;;
813;SDS011;389;48.710;9.392;2022-12-07T15:03:12;11.97;;;6.40;;
813;SDS011;389;48.710;9.392;2022-12-07T15:05:38;11.53;;;5.80;;
813;SDS011;389;48.710;9.392;2022-12-07T15:08:06;9.00;;;5.40;;
813;SDS011;389;48.710;9.392;2022-12-07T15:10:33;7.17;;;4.93;;
813;SDS011;389;48.710;9.392;2022-12-07T15:13:16;7.37;;;4.47;;
813;SDS011;389;48.710;9.392;2022-12-07T15:16:11;8.20;;;5.00;;
813;SDS011;389;48.710;9.392;2022-12-07T15:18:41;8.70;;;5.43;;
813;SDS011;389;48.710;9.392;2022-12-07T15:21:12;9.67;;;5.50;;
813;SDS011;389;48.710;9.392;2022-12-07T15:23:47;12.03;;;4.77;;
813;SDS011;389;48.710;9.392;2022-12-07T15:26:14;9.70;;;6.40;;
813;SDS011;389;48.710;9.392;2022-12-07T15:28:40;12.90;;;5.77;;
813;SDS011;389;48.710;9.392;2022-12-07T15:31:13;10.10;;;5.20;;
813;SDS011;389;48.710;9.392;2022-12-07T15:33:40;8.70;;;5.37;;
813;SDS011;389;48.710;9.392;2022-12-07T15:36:06;14.40;;;7.57;;
813;SDS011;389;48.710;9.392;2022-12-07T15:38:33;12.83;;;7.57;;
813;SDS011;389;48.710;9.392;2022-12-07T15:40:58;12.00;;;7.17;;
813;SDS011;389;48.710;9.392;2022-12-07T15:43:24;14.20;;;7.73;;
813;SDS011;389;48.710;9.392;2022-12-07T15:46:08;13.57;;;6.90;;
813;SDS011;389;48.710;9.392;2022-12-07T15:48:34;12.07;;;6.40;;
813;SDS011;389;48.710;9.392;2022-12-07T15:51:03;10.67;;;6.47;;
813;SDS011;389;48.710;9.392;2022-12-07T15:53:33;19.53;;;11.73;;
813;SDS011;389;48.710;9.392;2022-12-07T15:56:00;24.90;;;11.30;;
813;SDS011;389;48.710;9.392;2022-12-07T15:58:26;11.13;;;7.03;;
813;SDS011;389;48.710;9.392;2022-12-07T16:00:51;8.90;;;5.60;;
813;SDS011;389;48.710;9.392;2022-12-07T16:03:17;10.93;;;5.93;;
813;SDS011;389;48.710;9.392;2022-12-07T16:05:48;14.97;;;6.50;;
813;SDS011;389;48.710;9.392;2022-12-07T16:08:14;15.43;;;7.10;;
813;SDS011;389;48.710;9.392;2022-12-07T16:10:40;15.83;;;7.90;;
813;SDS011;389;48.710;9.392;2022-12-07T16:13:08;11.30;;;5.80;;
813;SDS011;389;48.710;9.392;2022-12-07T16:15:37;10.63;;;5.27;;
813;SDS011;389;48.710;9.392;2022-12-07T16:18:03;12.10;;;5.80;;
813;SDS011;389;48.710;9.392;2022-12-07T16:20:29;8.83;;;5.03;;
813;SDS011;389;48.710;9.392;2022-12-07T16:22:55;11.20;;;5.50;;
813;SDS011;389;48.710;9.392;2022-12-07T16:25:20;13.67;;;6.37;;
813;SDS011;389;48.710;9.392;2022-12-07T16:27:46;27.60;;;11.80;;
813;SDS011;389;48.710;9.392;2022-12-07T16:30:12;15.80;;;7.27;;
813;SDS011;389;48.710;9.392;2022-12-07T16:32:39;16.30;;;8.53;;
813;SDS011;389;48.710;9.392;2022-12-07T16:35:04;17.50;;;8.93;;
813;SDS011;389;48.710;9.392;2022-12-07T16:37:30;16.07;;;7.67;;
813;SDS011;389;48.710;9.392;2022-12-07T16:39:56;14.07;;;8.50;;
813;SDS011;389;48.710;9.392;2022-12-07T16:42:21;11.67;;;7.77;;
813;SDS011;389;48.710;9.392;2022-12-07T16:44:47;14.17;;;7.83;;
813;SDS011;389;48.710;9.392;2022-12-07T16:47:13;12.23;;;8.07;;
813;SDS011;389;48.710;9.392;2022-12-07T16:49:38;12.87;;;7.17;;
813;SDS011;389;48.710;9.392;2022-12-07T16:52:04;11.90;;;7.37;;
813;SDS011;389;48.710;9.392;2022-12-07T16:54:29;11.83;;;7.53;;
813;SDS011;389;48.710;9.392;2022-12-07T16:56:58;10.17;;;5.90;;
813;SDS011;389;48.710;9.392;2022-12-07T16:59:23;10.70;;;6.27;;
813;SDS011;389;48.710;9.392;2022-12-07T17:01:49;11.63;;;6.23;;
813;SDS011;389;48.710;9.392;2022-12-07T17:04:14;8.40;;;5.03;;
813;SDS011;389;48.710;9.392;2022-12-07T17:06:40;7.30;;;4.60;;
813;SDS011;389;48.710;9.392;2022-12-07T17:09:06;10.13;;;5.50;;
813;SDS011;389;48.710;9.392;2022-12-07T17:11:34;9.97;;;5.83;;
813;SDS011;389;48.710;9.392;2022-12-07T17:14:00;8.63;;;5.23;;
813;SDS011;389;48.710;9.392;2022-12-07T17:16:44;9.03;;;4.50;;
813;SDS011;389;48.710;9.392;2022-12-07T17:19:11;6.37;;;4.60;;
813;SDS011;389;48.710;9.392;2022-12-07T17:21:38;7.73;;;4.20;;
813;SDS011;389;48.710;9.392;2022-12-07T17:24:05;8.47;;;4.90;;
813;SDS011;389;48.710;9.392;2022-12-07T17:26:33;10.33;;;5.30;;
813;SDS011;389;48.710;9.392;2022-12-07T17:29:00;7.73;;;4.77;;
813;SDS011;389;48.710;9.392;2022-12-07T17:31:26;8.37;;;4.97;;
813;SDS011;389;48.710;9.392;2022-12-07T17:33:53;9.13;;;5.10;;
813;SDS011;389;48.710;9.392;2022-12-07T17:36:25;8.53;;;5.20;;
813;SDS011;389;48.710;9.392;2022-12-07T17:38:55;13.10;;;5.57;;
813;SDS011;389;48.710;9.392;2022-12-07T17:41:22;7.77;;;4.47;;
813;SDS011;389;48.710;9.392;2022-12-07T17:44:09;10.00;;;5.10;;
813;SDS011;389;48.710;9.392;2022-12-07T17:46:36;105.63;;;40.17;;
813;SDS011;389;48.710;9.392;2022-12-07T17:49:03;171.47;;;64.27;;
813;SDS011;389;48.710;9.392;2022-12-07T17:51:29;122.63;;;42.53;;
813;SDS011;389;48.710;9.392;2022-12-07T17:54:14;38.00;;;15.70;;
813;SDS011;389;48.710;9.392;2022-12-07T17:56:40;19.53;;;10.60;;
813;SDS011;389;48.710;9.392;2022-12-07T17:59:06;8.67;;;4.67;;
813;SDS011;389;48.710;9.392;2022-12-07T18:01:33;12.60;;;7.00;;
813;SDS011;389;48.710;9.392;2022-12-07T18:03:59;11.17;;;5.80;;
813;SDS011;389;48.710;9.392;2022-12-07T18:06:24;20.03;;;11.80;;
813;SDS011;389;48.710;9.392;2022-12-07T18:08:50;15.33;;;9.27;;
813;SDS011;389;48.710;9.392;2022-12-07T18:11:16;12.57;;;7.87;;
813;SDS011;389;48.710;9.392;2022-12-07T18:13:42;11.23;;;6.57;;